sensor_id;sensor_type;location;lat;lon;timestamp;temperature;humidity
66831;DHT22;53739;44.224;22.528;2022-12-19T00:01:30;77.50;358.40
66831;DHT22;53739;44.224;22.528;2022-12-19T00:04:10;77.60;6476.80
66831;DHT22;53739;44.224;22.528;2022-12-19T00:13:56;77.60;6476.80
66831;DHT22;53739;44.224;22.528;2022-12-19T00:16:27;77.60;6476.80
66831;DHT22;53739;44.224;22.528;2022-12-19T00:18:54;77.60;512.00
66831;DHT22;53739;44.224;22.528;2022-12-19T00:28:08;77.60;6476.80
66831;DHT22;53739;44.224;22.528;2022-12-19T00:30:36;77.50;6476.80
66831;DHT22;53739;44.224;22.528;2022-12-19T00:33:02;77.50;6476.80
66831;DHT22;53739;44.224;22.528;2022-12-19T00:35:30;77.60;2227.20
66831;DHT22;53739;44.224;22.528;2022-12-19T00:37:56;77.70;2227.20
66831;DHT22;53739;44.224;22.528;2022-12-19T00:40:22;77.70;2227.20
66831;DHT22;53739;44.224;22.528;2022-12-19T00:42:48;77.70;2227.20
66831;DHT22;53739;44.224;22.528;2022-12-19T00:45:14;77.70;2227.20
66831;DHT22;53739;44.224;22.528;2022-12-19T00:47:40;77.70;2227.20
66831;DHT22;53739;44.224;22.528;2022-12-19T00:50:06;77.70;6476.80
66831;DHT22;53739;44.224;22.528;2022-12-19T00:52:32;77.70;6476.80
66831;DHT22;53739;44.224;22.528;2022-12-19T00:55:01;77.70;563.20
66831;DHT22;53739;44.224;22.528;2022-12-19T00:57:27;77.70;6476.80
66831;DHT22;53739;44.224;22.528;2022-12-19T00:59:52;77.70;6476.80
66831;DHT22;53739;44.224;22.528;2022-12-19T01:02:18;77.70;6476.80
66831;DHT22;53739;44.224;22.528;2022-12-19T01:04:44;77.70;2022.40
66831;DHT22;53739;44.224;22.528;2022-12-19T01:07:10;77.70;1843.20
66831;DHT22;53739;44.224;22.528;2022-12-19T01:09:36;102.40;2227.20
66831;DHT22;53739;44.224;22.528;2022-12-19T01:12:04;102.40;6476.80
66831;DHT22;53739;44.224;22.528;2022-12-19T01:14:51;102.40;6476.80
66831;DHT22;53739;44.224;22.528;2022-12-19T01:17:17;77.70;6476.80
66831;DHT22;53739;44.224;22.528;2022-12-19T01:19:43;102.40;640.00
66831;DHT22;53739;44.224;22.528;2022-12-19T01:22:09;102.40;2227.20
66831;DHT22;53739;44.224;22.528;2022-12-19T01:24:35;102.40;6476.80
66831;DHT22;53739;44.224;22.528;2022-12-19T01:27:04;102.40;6476.80
66831;DHT22;53739;44.224;22.528;2022-12-19T01:29:31;102.40;2227.20
66831;DHT22;53739;44.224;22.528;2022-12-19T01:31:57;102.40;2227.20
66831;DHT22;53739;44.224;22.528;2022-12-19T01:34:23;102.40;2227.20
66831;DHT22;53739;44.224;22.528;2022-12-19T01:36:49;77.70;6476.80
66831;DHT22;53739;44.224;22.528;2022-12-19T01:39:15;77.70;614.40
66831;DHT22;53739;44.224;22.528;2022-12-19T01:41:40;77.70;6476.80
66831;DHT22;53739;44.224;22.528;2022-12-19T01:44:07;102.40;128.00
66831;DHT22;53739;44.224;22.528;2022-12-19T01:46:42;77.70;6476.80
66831;DHT22;53739;44.224;22.528;2022-12-19T01:49:30;77.70;2227.20
66831;DHT22;53739;44.224;22.528;2022-12-19T01:52:00;102.40;2227.20
66831;DHT22;53739;44.224;22.528;2022-12-19T01:54:33;102.40;6476.80
66831;DHT22;53739;44.224;22.528;2022-12-19T01:57:01;102.40;2227.20
66831;DHT22;53739;44.224;22.528;2022-12-19T01:59:32;102.40;2150.40
66831;DHT22;53739;44.224;22.528;2022-12-19T02:02:09;102.40;6476.80
66831;DHT22;53739;44.224;22.528;2022-12-19T02:04:36;102.40;6476.80
66831;DHT22;53739;44.224;22.528;2022-12-19T02:07:04;77.70;6476.80
66831;DHT22;53739;44.224;22.528;2022-12-19T02:09:31;77.60;6476.80
66831;DHT22;53739;44.224;22.528;2022-12-19T02:11:58;77.60;2227.20
66831;DHT22;53739;44.224;22.528;2022-12-19T02:14:24;77.70;6476.80
66831;DHT22;53739;44.224;22.528;2022-12-19T02:17:10;77.70;2227.20
66831;DHT22;53739;44.224;22.528;2022-12-19T02:30:13;102.40;2227.20
66831;DHT22;53739;44.224;22.528;2022-12-19T02:37:49;102.40;2227.20
66831;DHT22;53739;44.224;22.528;2022-12-19T02:40:22;102.40;2227.20
66831;DHT22;53739;44.224;22.528;2022-12-19T02:42:54;102.40;2227.20
66831;DHT22;53739;44.224;22.528;2022-12-19T02:45:22;102.50;2227.20
66831;DHT22;53739;44.224;22.528;2022-12-19T02:47:49;102.50;2227.20
66831;DHT22;53739;44.224;22.528;2022-12-19T02:50:16;102.50;2227.20
66831;DHT22;53739;44.224;22.528;2022-12-19T02:52:44;102.50;2227.20
66831;DHT22;53739;44.224;22.528;2022-12-19T02:55:16;102.50;2227.20
66831;DHT22;53739;44.224;22.528;2022-12-19T03:00:22;102.50;2227.20
66831;DHT22;53739;44.224;22.528;2022-12-19T03:03:15;102.50;2227.20
66831;DHT22;53739;44.224;22.528;2022-12-19T03:08:31;102.40;1792.00
66831;DHT22;53739;44.224;22.528;2022-12-19T03:11:02;77.70;1049.60
66831;DHT22;53739;44.224;22.528;2022-12-19T03:16:04;77.70;2227.20
66831;DHT22;53739;44.224;22.528;2022-12-19T03:18:32;77.70;2227.20
66831;DHT22;53739;44.224;22.528;2022-12-19T03:23:44;77.60;2227.20
66831;DHT22;53739;44.224;22.528;2022-12-19T03:26:15;77.70;2227.20
66831;DHT22;53739;44.224;22.528;2022-12-19T03:29:04;77.70;2227.20
66831;DHT22;53739;44.224;22.528;2022-12-19T03:31:34;102.40;2227.20
66831;DHT22;53739;44.224;22.528;2022-12-19T03:34:05;77.70;2227.20
66831;DHT22;53739;44.224;22.528;2022-12-19T03:36:38;77.70;409.60
66831;DHT22;53739;44.224;22.528;2022-12-19T03:39:06;77.70;2227.20
66831;DHT22;53739;44.224;22.528;2022-12-19T03:41:33;77.70;2227.20
66831;DHT22;53739;44.224;22.528;2022-12-19T03:44:20;102.40;1792.00
66831;DHT22;53739;44.224;22.528;2022-12-19T03:46:52;77.70;896.00
66831;DHT22;53739;44.224;22.528;2022-12-19T03:49:19;77.70;2227.20
66831;DHT22;53739;44.224;22.528;2022-12-19T03:51:53;77.70;2227.20
66831;DHT22;53739;44.224;22.528;2022-12-19T03:54:38;77.70;2227.20
66831;DHT22;53739;44.224;22.528;2022-12-19T03:57:17;102.40;2227.20
66831;DHT22;53739;44.224;22.528;2022-12-19T03:59:51;102.40;2227.20
66831;DHT22;53739;44.224;22.528;2022-12-19T04:02:21;102.40;2227.20
66831;DHT22;53739;44.224;22.528;2022-12-19T04:04:57;102.40;2227.20
66831;DHT22;53739;44.224;22.528;2022-12-19T04:07:24;102.40;2227.20
66831;DHT22;53739;44.224;22.528;2022-12-19T04:09:51;102.40;2227.20
66831;DHT22;53739;44.224;22.528;2022-12-19T04:12:25;102.50;2227.20
66831;DHT22;53739;44.224;22.528;2022-12-19T04:14:53;102.50;2022.40
66831;DHT22;53739;44.224;22.528;2022-12-19T04:20:13;102.50;2227.20
66831;DHT22;53739;44.224;22.528;2022-12-19T04:23:00;102.50;2227.20
66831;DHT22;53739;44.224;22.528;2022-12-19T04:25:36;102.50;2227.20
66831;DHT22;53739;44.224;22.528;2022-12-19T04:28:17;102.40;2227.20
66831;DHT22;53739;44.224;22.528;2022-12-19T04:30:45;102.40;2227.20
66831;DHT22;53739;44.224;22.528;2022-12-19T04:33:11;102.40;2227.20
66831;DHT22;53739;44.224;22.528;2022-12-19T04:35:37;102.40;2227.20
66831;DHT22;53739;44.224;22.528;2022-12-19T04:38:03;102.40;2227.20
66831;DHT22;53739;44.224;22.528;2022-12-19T04:40:29;102.40;2227.20
66831;DHT22;53739;44.224;22.528;2022-12-19T04:42:55;102.40;2227.20
66831;DHT22;53739;44.224;22.528;2022-12-19T04:45:20;102.50;2227.20
66831;DHT22;53739;44.224;22.528;2022-12-19T04:47:46;102.50;2227.20
66831;DHT22;53739;44.224;22.528;2022-12-19T04:50:12;102.50;2227.20
66831;DHT22;53739;44.224;22.528;2022-12-19T04:52:38;102.40;2176.00
66831;DHT22;53739;44.224;22.528;2022-12-19T04:55:04;102.40;2227.20
66831;DHT22;53739;44.224;22.528;2022-12-19T04:57:30;102.40;2227.20
66831;DHT22;53739;44.224;22.528;2022-12-19T04:59:56;102.40;2227.20
66831;DHT22;53739;44.224;22.528;2022-12-19T05:02:22;102.40;2227.20
66831;DHT22;53739;44.224;22.528;2022-12-19T05:04:49;102.40;2227.20
66831;DHT22;53739;44.224;22.528;2022-12-19T05:07:15;102.40;2227.20
66831;DHT22;53739;44.224;22.528;2022-12-19T05:09:41;102.40;2227.20
66831;DHT22;53739;44.224;22.528;2022-12-19T05:12:07;102.40;2227.20
66831;DHT22;53739;44.224;22.528;2022-12-19T05:14:34;102.40;2227.20
66831;DHT22;53739;44.224;22.528;2022-12-19T05:17:00;77.70;2227.20
66831;DHT22;53739;44.224;22.528;2022-12-19T05:19:26;77.70;2227.20
66831;DHT22;53739;44.224;22.528;2022-12-19T05:21:52;102.40;2227.20
66831;DHT22;53739;44.224;22.528;2022-12-19T05:24:18;77.70;2227.20
66831;DHT22;53739;44.224;22.528;2022-12-19T05:26:44;102.40;2227.20
66831;DHT22;53739;44.224;22.528;2022-12-19T05:29:10;102.40;2227.20
66831;DHT22;53739;44.224;22.528;2022-12-19T05:31:36;102.40;2227.20
66831;DHT22;53739;44.224;22.528;2022-12-19T05:34:01;102.40;2227.20
66831;DHT22;53739;44.224;22.528;2022-12-19T05:36:27;102.40;2227.20
66831;DHT22;53739;44.224;22.528;2022-12-19T05:38:53;102.40;2227.20
66831;DHT22;53739;44.224;22.528;2022-12-19T05:41:20;102.40;2227.20
66831;DHT22;53739;44.224;22.528;2022-12-19T05:43:50;102.40;2227.20
66831;DHT22;53739;44.224;22.528;2022-12-19T05:46:16;77.70;2227.20
66831;DHT22;53739;44.224;22.528;2022-12-19T05:48:42;77.70;2227.20
66831;DHT22;53739;44.224;22.528;2022-12-19T05:51:08;77.70;2227.20
66831;DHT22;53739;44.224;22.528;2022-12-19T05:53:35;77.70;2227.20
66831;DHT22;53739;44.224;22.528;2022-12-19T05:56:18;77.70;2227.20
66831;DHT22;53739;44.224;22.528;2022-12-19T05:58:44;77.70;2227.20
66831;DHT22;53739;44.224;22.528;2022-12-19T06:01:16;77.70;2227.20
66831;DHT22;53739;44.224;22.528;2022-12-19T06:03:46;77.70;2227.20
66831;DHT22;53739;44.224;22.528;2022-12-19T06:06:14;77.70;2227.20
66831;DHT22;53739;44.224;22.528;2022-12-19T06:08:40;102.40;2227.20
66831;DHT22;53739;44.224;22.528;2022-12-19T06:11:08;77.70;2227.20
66831;DHT22;53739;44.224;22.528;2022-12-19T06:13:38;77.70;2227.20
66831;DHT22;53739;44.224;22.528;2022-12-19T06:16:14;77.70;2227.20
66831;DHT22;53739;44.224;22.528;2022-12-19T06:19:12;77.70;2227.20
66831;DHT22;53739;44.224;22.528;2022-12-19T06:21:46;102.40;2227.20
66831;DHT22;53739;44.224;22.528;2022-12-19T06:24:12;102.40;2227.20
66831;DHT22;53739;44.224;22.528;2022-12-19T06:26:38;102.50;2227.20
66831;DHT22;53739;44.224;22.528;2022-12-19T06:29:04;102.50;2227.20
66831;DHT22;53739;44.224;22.528;2022-12-19T06:31:30;102.50;2227.20
66831;DHT22;53739;44.224;22.528;2022-12-19T06:33:55;102.50;2227.20
66831;DHT22;53739;44.224;22.528;2022-12-19T06:36:26;102.50;2227.20
66831;DHT22;53739;44.224;22.528;2022-12-19T06:38:53;102.50;2227.20
66831;DHT22;53739;44.224;22.528;2022-12-19T06:41:20;102.50;2227.20
66831;DHT22;53739;44.224;22.528;2022-12-19T06:44:08;102.50;2227.20
66831;DHT22;53739;44.224;22.528;2022-12-19T06:46:34;102.50;2227.20
66831;DHT22;53739;44.224;22.528;2022-12-19T06:49:00;102.50;2227.20
66831;DHT22;53739;44.224;22.528;2022-12-19T06:51:26;102.50;2227.20
66831;DHT22;53739;44.224;22.528;2022-12-19T06:53:55;102.50;2227.20
66831;DHT22;53739;44.224;22.528;2022-12-19T06:56:24;102.50;2227.20
66831;DHT22;53739;44.224;22.528;2022-12-19T06:58:53;102.50;2227.20
66831;DHT22;53739;44.224;22.528;2022-12-19T07:01:33;102.50;2227.20
66831;DHT22;53739;44.224;22.528;2022-12-19T07:04:06;102.50;2227.20
66831;DHT22;53739;44.224;22.528;2022-12-19T07:06:35;102.50;2227.20
66831;DHT22;53739;44.224;22.528;2022-12-19T07:09:01;102.50;2227.20
66831;DHT22;53739;44.224;22.528;2022-12-19T07:11:29;102.50;2227.20
66831;DHT22;53739;44.224;22.528;2022-12-19T07:13:55;102.50;2227.20
66831;DHT22;53739;44.224;22.528;2022-12-19T07:16:21;102.50;2227.20
66831;DHT22;53739;44.224;22.528;2022-12-19T07:18:48;102.60;2227.20
66831;DHT22;53739;44.224;22.528;2022-12-19T07:21:19;102.60;2227.20
66831;DHT22;53739;44.224;22.528;2022-12-19T07:23:45;102.60;2227.20
66831;DHT22;53739;44.224;22.528;2022-12-19T07:26:11;102.60;2227.20
66831;DHT22;53739;44.224;22.528;2022-12-19T07:28:37;102.60;2227.20
66831;DHT22;53739;44.224;22.528;2022-12-19T07:31:03;102.60;2227.20
66831;DHT22;53739;44.224;22.528;2022-12-19T07:33:32;102.60;2227.20
66831;DHT22;53739;44.224;22.528;2022-12-19T07:35:58;102.70;2227.20
66831;DHT22;53739;44.224;22.528;2022-12-19T07:38:24;102.70;2227.20
66831;DHT22;53739;44.224;22.528;2022-12-19T07:40:49;102.70;2227.20
66831;DHT22;53739;44.224;22.528;2022-12-19T07:43:15;102.70;2227.20
66831;DHT22;53739;44.224;22.528;2022-12-19T07:45:41;102.80;2227.20
66831;DHT22;53739;44.224;22.528;2022-12-19T07:48:07;102.80;2227.20
66831;DHT22;53739;44.224;22.528;2022-12-19T07:50:33;102.80;2227.20
66831;DHT22;53739;44.224;22.528;2022-12-19T07:52:59;102.80;2227.20
66831;DHT22;53739;44.224;22.528;2022-12-19T07:55:25;102.70;2227.20
66831;DHT22;53739;44.224;22.528;2022-12-19T07:57:51;102.70;2227.20
66831;DHT22;53739;44.224;22.528;2022-12-19T08:00:18;102.70;2227.20
66831;DHT22;53739;44.224;22.528;2022-12-19T08:02:44;102.80;2227.20
66831;DHT22;53739;44.224;22.528;2022-12-19T08:05:13;102.80;2227.20
66831;DHT22;53739;44.224;22.528;2022-12-19T08:07:38;102.80;2227.20
66831;DHT22;53739;44.224;22.528;2022-12-19T08:10:08;102.80;2227.20
66831;DHT22;53739;44.224;22.528;2022-12-19T08:12:36;102.80;2227.20
66831;DHT22;53739;44.224;22.528;2022-12-19T08:15:03;102.80;2227.20
66831;DHT22;53739;44.224;22.528;2022-12-19T08:17:30;102.80;2227.20
66831;DHT22;53739;44.224;22.528;2022-12-19T08:19:58;102.80;2227.20
66831;DHT22;53739;44.224;22.528;2022-12-19T08:22:24;102.80;2227.20
66831;DHT22;53739;44.224;22.528;2022-12-19T08:24:49;102.80;2227.20
66831;DHT22;53739;44.224;22.528;2022-12-19T08:27:16;102.80;2227.20
66831;DHT22;53739;44.224;22.528;2022-12-19T08:29:42;102.80;2227.20
66831;DHT22;53739;44.224;22.528;2022-12-19T08:32:09;102.80;2227.20
66831;DHT22;53739;44.224;22.528;2022-12-19T08:34:35;102.80;2227.20
66831;DHT22;53739;44.224;22.528;2022-12-19T08:37:01;102.80;2227.20
66831;DHT22;53739;44.224;22.528;2022-12-19T08:39:26;102.80;2227.20
66831;DHT22;53739;44.224;22.528;2022-12-19T08:41:52;102.80;2227.20
66831;DHT22;53739;44.224;22.528;2022-12-19T08:44:19;102.80;2227.20
66831;DHT22;53739;44.224;22.528;2022-12-19T08:46:45;102.80;2227.20
66831;DHT22;53739;44.224;22.528;2022-12-19T08:49:10;102.90;2227.20
66831;DHT22;53739;44.224;22.528;2022-12-19T08:51:39;102.90;2227.20
66831;DHT22;53739;44.224;22.528;2022-12-19T08:54:07;102.90;2227.20
66831;DHT22;53739;44.224;22.528;2022-12-19T08:56:33;102.90;2227.20
66831;DHT22;53739;44.224;22.528;2022-12-19T08:59:02;102.90;2227.20
66831;DHT22;53739;44.224;22.528;2022-12-19T09:01:33;102.90;2227.20
66831;DHT22;53739;44.224;22.528;2022-12-19T09:04:01;102.90;2227.20
66831;DHT22;53739;44.224;22.528;2022-12-19T09:06:30;102.90;2227.20
66831;DHT22;53739;44.224;22.528;2022-12-19T09:08:56;102.90;2227.20
66831;DHT22;53739;44.224;22.528;2022-12-19T09:11:22;102.90;2227.20
66831;DHT22;53739;44.224;22.528;2022-12-19T09:13:48;102.90;2227.20
66831;DHT22;53739;44.224;22.528;2022-12-19T09:16:20;103.00;2227.20
66831;DHT22;53739;44.224;22.528;2022-12-19T09:18:48;103.00;2227.20
66831;DHT22;53739;44.224;22.528;2022-12-19T09:21:15;103.00;2227.20
66831;DHT22;53739;44.224;22.528;2022-12-19T09:23:42;103.00;2227.20
66831;DHT22;53739;44.224;22.528;2022-12-19T09:26:12;103.00;2227.20
66831;DHT22;53739;44.224;22.528;2022-12-19T09:28:39;103.00;2227.20
66831;DHT22;53739;44.224;22.528;2022-12-19T09:31:14;103.00;2227.20
66831;DHT22;53739;44.224;22.528;2022-12-19T09:33:43;103.00;2227.20
66831;DHT22;53739;44.224;22.528;2022-12-19T09:36:17;103.00;2227.20
66831;DHT22;53739;44.224;22.528;2022-12-19T09:38:53;103.00;2227.20
66831;DHT22;53739;44.224;22.528;2022-12-19T09:46:58;102.90;2227.20
66831;DHT22;53739;44.224;22.528;2022-12-19T09:49:35;102.90;2227.20
66831;DHT22;53739;44.224;22.528;2022-12-19T09:52:10;102.90;2227.20
66831;DHT22;53739;44.224;22.528;2022-12-19T09:57:38;103.00;2227.20
66831;DHT22;53739;44.224;22.528;2022-12-19T10:00:14;102.90;2227.20
66831;DHT22;53739;44.224;22.528;2022-12-19T10:02:54;102.90;2227.20
66831;DHT22;53739;44.224;22.528;2022-12-19T10:07:52;102.90;2227.20
66831;DHT22;53739;44.224;22.528;2022-12-19T10:10:35;102.90;2227.20
66831;DHT22;53739;44.224;22.528;2022-12-19T10:19:35;102.80;2227.20
66831;DHT22;53739;44.224;22.528;2022-12-19T10:30:21;102.80;2227.20
66831;DHT22;53739;44.224;22.528;2022-12-19T10:35:50;102.90;2227.20
66831;DHT22;53739;44.224;22.528;2022-12-19T10:38:54;102.90;2227.20
66831;DHT22;53739;44.224;22.528;2022-12-19T10:41:30;102.90;2227.20
66831;DHT22;53739;44.224;22.528;2022-12-19T10:44:03;102.90;2227.20
66831;DHT22;53739;44.224;22.528;2022-12-19T10:46:46;102.90;2227.20
66831;DHT22;53739;44.224;22.528;2022-12-19T10:49:19;102.90;2227.20
66831;DHT22;53739;44.224;22.528;2022-12-19T11:00:05;102.90;2227.20
66831;DHT22;53739;44.224;22.528;2022-12-19T11:05:05;102.90;2227.20
66831;DHT22;53739;44.224;22.528;2022-12-19T11:15:57;102.80;2227.20
66831;DHT22;53739;44.224;22.528;2022-12-19T11:18:32;102.80;2227.20
66831;DHT22;53739;44.224;22.528;2022-12-19T11:21:13;102.80;2227.20
66831;DHT22;53739;44.224;22.528;2022-12-19T11:23:50;102.80;2227.20
66831;DHT22;53739;44.224;22.528;2022-12-19T11:26:42;102.80;2227.20
66831;DHT22;53739;44.224;22.528;2022-12-19T11:31:58;102.80;2227.20
66831;DHT22;53739;44.224;22.528;2022-12-19T11:34:27;102.80;2227.20
66831;DHT22;53739;44.224;22.528;2022-12-19T11:51:13;102.60;2227.20
66831;DHT22;53739;44.224;22.528;2022-12-19T11:53:50;102.60;2227.20
66831;DHT22;53739;44.224;22.528;2022-12-19T11:56:22;102.50;2227.20
66831;DHT22;53739;44.224;22.528;2022-12-19T11:58:53;102.60;2227.20
66831;DHT22;53739;44.224;22.528;2022-12-19T12:07:07;102.50;2227.20
66831;DHT22;53739;44.224;22.528;2022-12-19T12:09:57;102.50;2227.20
66831;DHT22;53739;44.224;22.528;2022-12-19T12:18:01;102.60;2227.20
66831;DHT22;53739;44.224;22.528;2022-12-19T12:21:16;102.60;2227.20
66831;DHT22;53739;44.224;22.528;2022-12-19T12:26:28;102.60;2227.20
66831;DHT22;53739;44.224;22.528;2022-12-19T12:29:20;102.60;2227.20
66831;DHT22;53739;44.224;22.528;2022-12-19T12:32:27;102.60;2227.20
66831;DHT22;53739;44.224;22.528;2022-12-19T12:35:14;102.70;2227.20
66831;DHT22;53739;44.224;22.528;2022-12-19T12:38:03;102.60;2227.20
66831;DHT22;53739;44.224;22.528;2022-12-19T12:46:16;102.60;2227.20
66831;DHT22;53739;44.224;22.528;2022-12-19T12:49:03;102.70;2227.20
66831;DHT22;53739;44.224;22.528;2022-12-19T12:51:31;102.70;2227.20
66831;DHT22;53739;44.224;22.528;2022-12-19T12:54:09;102.70;2227.20
66831;DHT22;53739;44.224;22.528;2022-12-19T12:57:05;102.70;2227.20
66831;DHT22;53739;44.224;22.528;2022-12-19T12:59:44;102.60;2227.20
66831;DHT22;53739;44.224;22.528;2022-12-19T13:02:23;102.60;2227.20
66831;DHT22;53739;44.224;22.528;2022-12-19T13:08:36;102.70;2227.20
66831;DHT22;53739;44.224;22.528;2022-12-19T13:20:52;102.60;2227.20
66831;DHT22;53739;44.224;22.528;2022-12-19T13:23:44;102.60;2227.20
66831;DHT22;53739;44.224;22.528;2022-12-19T13:26:43;102.60;2227.20
66831;DHT22;53739;44.224;22.528;2022-12-19T13:35:30;102.60;2227.20
66831;DHT22;53739;44.224;22.528;2022-12-19T13:40:29;102.50;2227.20
66831;DHT22;53739;44.224;22.528;2022-12-19T13:45:48;102.50;2227.20
66831;DHT22;53739;44.224;22.528;2022-12-19T13:51:08;102.60;2227.20
66831;DHT22;53739;44.224;22.528;2022-12-19T13:53:34;102.60;2227.20
66831;DHT22;53739;44.224;22.528;2022-12-19T13:56:04;102.70;2227.20
66831;DHT22;53739;44.224;22.528;2022-12-19T13:58:33;102.70;2227.20
66831;DHT22;53739;44.224;22.528;2022-12-19T14:01:08;102.70;2227.20
66831;DHT22;53739;44.224;22.528;2022-12-19T14:03:42;102.60;2227.20
66831;DHT22;53739;44.224;22.528;2022-12-19T14:06:40;102.60;2227.20
66831;DHT22;53739;44.224;22.528;2022-12-19T16:04:44;77.60;2227.20
66831;DHT22;53739;44.224;22.528;2022-12-19T16:07:30;77.60;2227.20
66831;DHT22;53739;44.224;22.528;2022-12-19T16:13:15;77.40;2227.20
66831;DHT22;53739;44.224;22.528;2022-12-19T16:15:42;77.40;2227.20
66831;DHT22;53739;44.224;22.528;2022-12-19T16:18:12;77.50;2227.20
66831;DHT22;53739;44.224;22.528;2022-12-19T16:20:39;77.40;2227.20
66831;DHT22;53739;44.224;22.528;2022-12-19T16:23:06;77.40;2227.20
66831;DHT22;53739;44.224;22.528;2022-12-19T16:28:05;77.50;2227.20
66831;DHT22;53739;44.224;22.528;2022-12-19T16:30:33;77.40;2227.20
66831;DHT22;53739;44.224;22.528;2022-12-19T16:32:59;77.40;2227.20
66831;DHT22;53739;44.224;22.528;2022-12-19T16:35:53;77.40;2227.20
66831;DHT22;53739;44.224;22.528;2022-12-19T16:38:22;77.50;2227.20
66831;DHT22;53739;44.224;22.528;2022-12-19T16:40:51;77.50;2227.20
66831;DHT22;53739;44.224;22.528;2022-12-19T16:44:01;77.50;1945.60
66831;DHT22;53739;44.224;22.528;2022-12-19T17:00:15;77.40;1920.00
66831;DHT22;53739;44.224;22.528;2022-12-19T17:03:24;77.40;2176.00
66831;DHT22;53739;44.224;22.528;2022-12-19T17:06:17;77.40;2227.20
66831;DHT22;53739;44.224;22.528;2022-12-19T17:08:44;77.30;2227.20
66831;DHT22;53739;44.224;22.528;2022-12-19T17:11:43;77.30;2227.20
66831;DHT22;53739;44.224;22.528;2022-12-19T17:14:30;77.20;2227.20
66831;DHT22;53739;44.224;22.528;2022-12-19T17:17:08;77.30;2227.20
66831;DHT22;53739;44.224;22.528;2022-12-19T17:19:37;77.20;2227.20
66831;DHT22;53739;44.224;22.528;2022-12-19T17:22:16;77.20;2227.20
66831;DHT22;53739;44.224;22.528;2022-12-19T17:24:45;77.20;2227.20
66831;DHT22;53739;44.224;22.528;2022-12-19T17:27:11;77.20;2227.20
66831;DHT22;53739;44.224;22.528;2022-12-19T17:29:37;77.10;2022.40
66831;DHT22;53739;44.224;22.528;2022-12-19T17:32:04;77.10;2227.20
66831;DHT22;53739;44.224;22.528;2022-12-19T17:34:33;77.00;2227.20
66831;DHT22;53739;44.224;22.528;2022-12-19T17:37:01;77.00;1868.80
66831;DHT22;53739;44.224;22.528;2022-12-19T17:39:35;77.00;2227.20
66831;DHT22;53739;44.224;22.528;2022-12-19T17:42:17;77.00;2227.20
66831;DHT22;53739;44.224;22.528;2022-12-19T17:44:47;77.00;2227.20
66831;DHT22;53739;44.224;22.528;2022-12-19T17:47:19;77.00;2227.20
66831;DHT22;53739;44.224;22.528;2022-12-19T17:49:46;77.00;2227.20
66831;DHT22;53739;44.224;22.528;2022-12-19T17:52:21;77.00;2227.20
66831;DHT22;53739;44.224;22.528;2022-12-19T17:54:54;77.00;2227.20
66831;DHT22;53739;44.224;22.528;2022-12-19T17:57:30;77.00;2227.20
66831;DHT22;53739;44.224;22.528;2022-12-19T17:59:58;76.90;2227.20
66831;DHT22;53739;44.224;22.528;2022-12-19T18:02:27;76.90;2227.20
66831;DHT22;53739;44.224;22.528;2022-12-19T18:04:53;76.90;2227.20
66831;DHT22;53739;44.224;22.528;2022-12-19T18:07:22;76.90;2227.20
66831;DHT22;53739;44.224;22.528;2022-12-19T18:09:51;76.90;2227.20
66831;DHT22;53739;44.224;22.528;2022-12-19T18:12:20;76.90;2227.20
66831;DHT22;53739;44.224;22.528;2022-12-19T18:14:48;76.80;2227.20
66831;DHT22;53739;44.224;22.528;2022-12-19T18:17:23;76.90;2227.20
66831;DHT22;53739;44.224;22.528;2022-12-19T18:19:52;76.90;2227.20
66831;DHT22;53739;44.224;22.528;2022-12-19T18:22:41;76.80;2227.20
66831;DHT22;53739;44.224;22.528;2022-12-19T18:36:26;52.10;2227.20
66831;DHT22;53739;44.224;22.528;2022-12-19T18:49:11;52.10;2227.20
66831;DHT22;53739;44.224;22.528;2022-12-19T18:51:38;52.00;2227.20
66831;DHT22;53739;44.224;22.528;2022-12-19T18:54:14;52.00;2227.20
66831;DHT22;53739;44.224;22.528;2022-12-19T18:56:44;52.00;2227.20
66831;DHT22;53739;44.224;22.528;2022-12-19T18:59:50;52.00;2227.20
66831;DHT22;53739;44.224;22.528;2022-12-19T19:02:24;51.90;2227.20
66831;DHT22;53739;44.224;22.528;2022-12-19T19:04:50;51.90;2227.20
66831;DHT22;53739;44.224;22.528;2022-12-19T19:07:17;51.90;2227.20
66831;DHT22;53739;44.224;22.528;2022-12-19T19:09:43;51.90;2227.20
66831;DHT22;53739;44.224;22.528;2022-12-19T19:12:09;51.80;2227.20
66831;DHT22;53739;44.224;22.528;2022-12-19T19:14:37;51.80;2227.20
66831;DHT22;53739;44.224;22.528;2022-12-19T19:17:15;51.80;2227.20
66831;DHT22;53739;44.224;22.528;2022-12-19T19:20:01;51.70;2227.20
66831;DHT22;53739;44.224;22.528;2022-12-19T19:29:22;51.70;2227.20
66831;DHT22;53739;44.224;22.528;2022-12-19T19:38:37;51.50;2227.20
66831;DHT22;53739;44.224;22.528;2022-12-19T19:41:03;51.50;2227.20
66831;DHT22;53739;44.224;22.528;2022-12-19T19:43:29;51.50;2227.20
66831;DHT22;53739;44.224;22.528;2022-12-19T19:46:01;51.50;2227.20
66831;DHT22;53739;44.224;22.528;2022-12-19T19:48:40;51.50;2227.20
66831;DHT22;53739;44.224;22.528;2022-12-19T19:51:07;51.50;2227.20
66831;DHT22;53739;44.224;22.528;2022-12-19T19:53:33;51.40;2227.20
66831;DHT22;53739;44.224;22.528;2022-12-19T19:56:01;51.40;2227.20
66831;DHT22;53739;44.224;22.528;2022-12-19T19:58:35;51.40;2227.20
66831;DHT22;53739;44.224;22.528;2022-12-19T20:01:09;51.30;2227.20
66831;DHT22;53739;44.224;22.528;2022-12-19T20:03:38;51.30;2073.60
66831;DHT22;53739;44.224;22.528;2022-12-19T20:06:04;51.40;2227.20
66831;DHT22;53739;44.224;22.528;2022-12-19T20:08:56;51.20;2227.20
66831;DHT22;53739;44.224;22.528;2022-12-19T20:21:48;51.20;2227.20
66831;DHT22;53739;44.224;22.528;2022-12-19T20:24:15;51.20;2227.20
66831;DHT22;53739;44.224;22.528;2022-12-19T20:26:41;26.50;2201.60
66831;DHT22;53739;44.224;22.528;2022-12-19T20:29:10;51.20;2227.20
66831;DHT22;53739;44.224;22.528;2022-12-19T20:31:41;26.50;2201.60
66831;DHT22;53739;44.224;22.528;2022-12-19T20:34:08;26.50;1945.60
66831;DHT22;53739;44.224;22.528;2022-12-19T20:36:34;26.50;2201.60
66831;DHT22;53739;44.224;22.528;2022-12-19T20:39:01;51.20;2227.20
66831;DHT22;53739;44.224;22.528;2022-12-19T20:41:27;26.50;2201.60